North Cascades National Park, WA

09:04 PST le 11 février 2016 (GMT -0800)
Newhalem Helistop | | Change Station
CLOSE
Current Station
Stations météorologiques personnelles
Location: Newhalem, WA
Altitude: 504 ft
Stations météo à proximité

Alt. 504 ft 48.67 °N, 121.25 °W | Updated 48 seconds ago

Nuageux
Nuageux
48.2 ° F
Paraît 40 ° F
N
26.0
Vent Variable Vent de Est
Gusts 37.0 mph

Aujourd'hui
Haut(e) -- | Bas -- ° F
--% Risque de précip.
Hier
Haut(e) -- | Bas -- ° F
Precip. -- pouce
Pression 30.20 pouce
Visibilité 10.0 Miles terrestres
Nuages Couvert 10000 ft
Refroidissement éolien 40 ° F
Point de rosée 41 ° F
Humidité 75%
Précipitations 0.00 pouce
Profondeur de la couche neigeuse Non disponible.
7:20 AM 5:20 PM
Lune montante, 13% visible
METAR KAWO 111655Z AUTO 00000KT 10SM OVC100 08/03 A3020 RMK AO1
Pression 30.20 pouce
Visibilité 10.0 Miles terrestres
Nuages Couvert 10000 ft
Refroidissement éolien 40 ° F
Point de rosée 41 ° F
Humidité 75%
Précipitations 0.00 pouce
Profondeur de la couche neigeuse Non disponible.
7:20 AM 5:20 PM
Lune montante, 13% visible
METAR KAWO 111655Z AUTO 00000KT 10SM OVC100 08/03 A3020 RMK AO1

10-Day Weather Forecast

Almanac

Astronomie

Feb. 11, 2016 Lever Coucher
Temps réel
Crépuscule civil
Crépuscule nautique
Crépuscule astronomique
Lune
Durée de lumière visible
Longueur du jour
Tomorrow will be .
, % of the Moon is Illuminated

Extrêmes aujourd'hui

State Highs State Lows

Community

WunderPhotos

Upload Photos

1,892,102 Photos téléchargées !

WunderBlog® & News

Nearby

Qualité de l'air

  Qualité de l'air Indice de la qualité de l'air Polluant
Not available.

Épaisseur de neige

Station Depth Altitude

Activité sismique

Ville Distance Mag. Time & Date
Minimum magnitude displayed is 2.5.

Températures des eaux côtières

Lieu Température

Stations

Stations météo à proximité

Emplacement de la station Température Refroidissement éolien Point de rosée Humidité Vent Precip. Alt. Mise à jour Type
                   

Watches & Warnings

There are currently no watches in effect.